N869KN TVSB-TUPW
Flight info
| Callsign | N869KN |
|---|---|
| Flight time | N/A |
| Altitude | 7000 |
| Route | SV A324 FOF A312 PPR/N0198F060 A517 PJM B520 LARPP |
| Aircraft | BE58/L-SDFGRY/C |
Departure
| Time | 2026-05-05 14:19 |
|---|---|
| Airport | J F Mitchell Airport (TVSB) |
Arrival
| Time | N/A |
|---|---|
| Airport | Virgin Gorda Airport (TUPW) |
| Time | Latitude | Longitude | Altitude | Speed | Heading |
|---|---|---|---|---|---|
| 2026-05-05 14:11 | 12.98884 | -61.26070 | 37 ft | 0 kts | 105° |
| 2026-05-05 14:16 | 12.98884 | -61.26069 | 37 ft | 3 kts | 122° |
| 2026-05-05 14:16 | 12.98874 | -61.26069 | 37 ft | 4 kts | 233° |
| 2026-05-05 14:16 | 12.98886 | -61.26087 | 37 ft | 3 kts | 299° |
| 2026-05-05 14:16 | 12.98838 | -61.26127 | 35 ft | 10 kts | 251° |
| 2026-05-05 14:17 | 12.98858 | -61.26236 | 37 ft | 23 kts | 284° |
| 2026-05-05 14:17 | 12.98909 | -61.26444 | 37 ft | 37 kts | 284° |
| 2026-05-05 14:17 | 12.98966 | -61.26682 | 37 ft | 9 kts | 282° |
| 2026-05-05 14:17 | 12.98956 | -61.26705 | 37 ft | 2 kts | 173° |
| 2026-05-05 14:18 | 12.98964 | -61.26683 | 37 ft | 5 kts | 93° |
| 2026-05-05 14:18 | 12.98962 | -61.26674 | 37 ft | 0 kts | 102° |
| 2026-05-05 14:18 | 12.98893 | -61.26374 | 45 ft | 81 kts | 98° |
| 2026-05-05 14:19 | 12.98688 | -61.25735 | 274 ft | 109 kts | 106° |
| 2026-05-05 14:19 | 12.98511 | -61.25201 | 415 ft | 122 kts | 105° |
| 2026-05-05 14:19 | 12.98237 | -61.24329 | 664 ft | 137 kts | 106° |
| 2026-05-05 14:19 | 12.98085 | -61.23338 | 915 ft | 146 kts | 79° |
| 2026-05-05 14:20 | 12.98627 | -61.22466 | 1157 ft | 152 kts | 38° |
| 2026-05-05 14:20 | 12.99677 | -61.22234 | 1401 ft | 165 kts | 356° |
| 2026-05-05 14:20 | 13.00769 | -61.22694 | 1683 ft | 174 kts | 336° |
| 2026-05-05 14:20 | 13.01825 | -61.23325 | 1944 ft | 177 kts | 334° |
| 2026-05-05 14:21 | 13.02905 | -61.23931 | 2165 ft | 174 kts | 342° |
| 2026-05-05 14:21 | 13.04033 | -61.24285 | 2410 ft | 167 kts | 356° |
| 2026-05-05 14:21 | 13.05177 | -61.24379 | 2653 ft | 162 kts | 7° |
| 2026-05-05 14:21 | 13.06291 | -61.24304 | 2899 ft | 158 kts | 13° |
| 2026-05-05 14:22 | 13.07375 | -61.24135 | 3139 ft | 158 kts | 15° |
| 2026-05-05 14:22 | 13.08445 | -61.23922 | 3385 ft | 156 kts | 17° |
| 2026-05-05 14:22 | 13.09504 | -61.23687 | 3629 ft | 155 kts | 19° |
| 2026-05-05 14:22 | 13.10557 | -61.23443 | 3872 ft | 155 kts | 19° |
| 2026-05-05 14:23 | 13.11591 | -61.23199 | 4118 ft | 154 kts | 19° |
| 2026-05-05 14:23 | 13.12636 | -61.22950 | 4362 ft | 154 kts | 19° |
| 2026-05-05 14:23 | 13.13682 | -61.22697 | 4610 ft | 154 kts | 21° |
| 2026-05-05 14:23 | 13.14696 | -61.22346 | 4933 ft | 154 kts | 29° |
| 2026-05-05 14:24 | 13.15690 | -61.21912 | 5236 ft | 156 kts | 29° |
| 2026-05-05 14:24 | 13.16691 | -61.21483 | 5474 ft | 155 kts | 28° |
| 2026-05-05 14:24 | 13.17682 | -61.21074 | 5684 ft | 152 kts | 28° |
| 2026-05-05 14:24 | 13.18656 | -61.20670 | 5945 ft | 150 kts | 28° |
| 2026-05-05 14:25 | 13.19619 | -61.20284 | 6183 ft | 147 kts | 28° |
| 2026-05-05 14:25 | 13.20552 | -61.19902 | 6435 ft | 143 kts | 29° |
| 2026-05-05 14:25 | 13.20850 | -61.19777 | 6517 ft | 142 kts | 29° |